< Typhoon 198805 1988 Season Typhoon 198807 >
Typhoon 198806 (WARREN)
General InformationTrack Information on Google MapsDetailed Wind InformationList of All Images || Disaster Info.ResourceGoogle EarthGE AnimationAtom FeedGeoJSON
Detalied Best Track (Time Zone = UTC)
Year Month Day Hour Lat. Long. Pressure (hPa) Wind (kt) Class Image Chart
1988 7 12 06 11.0 146.0 1006 0 2 Image Chart
1988 7 12 12 11.1 145.4 1006 0 2 Image Chart
1988 7 12 18 11.2 144.8 1006 0 2 Image Chart
1988 7 13 00 11.3 144.1 1004 0 2 Image Chart
1988 7 13 06 11.5 143.5 1004 0 2 Image Chart
1988 7 13 12 11.7 142.9 1002 0 2 Image Chart
1988 7 13 18 11.9 142.2 1002 0 2 Image Chart
1988 7 14 00 12.0 141.5 1000 35 3 Image Chart
1988 7 14 06 12.2 140.8 998 35 3 Image Chart
1988 7 14 12 12.3 140.1 996 35 3 Image Chart
1988 7 14 18 12.4 139.3 994 40 3 Image Chart
1988 7 15 00 12.6 138.4 990 45 3 Image Chart
1988 7 15 06 13.0 137.3 985 50 4 Image Chart
1988 7 15 12 13.4 136.4 980 55 4 Image Chart
1988 7 15 18 13.8 135.2 975 55 4 Image Chart
1988 7 16 00 14.1 133.7 970 60 4 Image Chart
1988 7 16 06 14.8 132.0 960 70 5 Image Chart
1988 7 16 12 15.3 130.2 955 75 5 Image Chart
1988 7 16 18 15.8 128.6 950 80 5 Image Chart
1988 7 17 00 16.2 127.3 945 85 5 Image Chart
1988 7 17 06 16.9 125.6 940 90 5 Image Chart
1988 7 17 12 17.5 124.2 940 90 5 Image Chart
1988 7 17 18 18.2 122.7 940 90 5 Image Chart
1988 7 18 00 18.6 121.7 955 80 5 Image Chart
1988 7 18 06 19.2 120.5 960 75 5 Image Chart
1988 7 18 12 20.0 119.1 965 70 5 Image Chart
1988 7 18 18 20.8 118.1 965 65 5 Image Chart
1988 7 19 00 21.7 117.1 970 65 5 Image Chart
1988 7 19 06 22.5 116.2 970 65 5 Image Chart
1988 7 19 12 23.4 115.3 980 50 4 Image Chart
1988 7 19 18 24.3 114.1 992 35 3 Image Chart
1988 7 20 00 25.0 113.0 998 0 2 Image Chart
Japan Meteorological Agency Best Track Data | Correction Date : 1992-10-21
< Typhoon 198805 1988 Season Typhoon 198807 >

Help